Search for airport 
image banner adimage banner ad
image banner ad

SIPJ - Fazenda Marreco Airport

Located in São Gonçalo Do Abaeté, Brazil

ICAO - SIPJ, IATA -

Data provided by Airmate  

General information

Coordinates: S29°5'8" W53°51'56"
Elevation is 1515 feet MSL.
Magnetic variation is -15° East
Rated:
View ratings: [VIEW]


View others Airports in Rio Grande do Sul

Operational data

Open for public use
Current time UTC:
Current local time:
Weather at : SBSM - Santa Maria Airport ( 71 km )
METAR: SBSM 032000Z 10009KT CAVOK 26/16 Q1023
TAF: TAF SBSM 031500Z 0318/0406 08007KT CAVOK TX28/0318Z TN15/0406Z RMK PEU
View NOTAMs / SUP AIP / TFR affecting this airport [VIEW]
Communications frequencies: [VIEW]

Runways:

RWY identifierQFULength (ft)Width (ft)SurfaceLDA (ft)
06229682GRASS
24229682GRASS

Airport contact information

Address: São Gonçalo Do Abaeté Brazil

Satellite view of SIPJ